createdAt,value
2022-08-17T00:00:42.925Z,98481.84
2022-08-17T00:03:17.353Z,98489.22
2022-08-17T00:05:50.667Z,98491.13
2022-08-17T00:08:24.702Z,98488.88
2022-08-17T00:10:56.605Z,98475.13
2022-08-17T00:13:30.312Z,98478.00
2022-08-17T00:16:04.781Z,98481.16
2022-08-17T00:19:06.377Z,98478.25
2022-08-17T00:21:25.685Z,98481.75
2022-08-17T00:24:15.323Z,98487.84
2022-08-17T00:26:45.414Z,98487.03
2022-08-17T00:29:20.044Z,98487.84
2022-08-17T00:31:50.656Z,98484.97
2022-08-17T00:34:19.817Z,98492.34
2022-08-17T00:36:48.583Z,98480.97
2022-08-17T00:39:17.311Z,98486.22
2022-08-17T00:41:46.037Z,98482.03
2022-08-17T00:44:15.636Z,98485.88
2022-08-17T00:46:47.904Z,98486.03
2022-08-17T00:49:19.757Z,98492.44
2022-08-17T00:51:54.391Z,98482.16
2022-08-17T00:54:28.502Z,98490.19
2022-08-17T00:57:04.487Z,98481.03
2022-08-17T00:59:39.237Z,98488.88
2022-08-17T01:02:11.407Z,98491.25
2022-08-17T01:04:44.050Z,98485.81
2022-08-17T01:07:13.700Z,98480.84
2022-08-17T01:09:44.577Z,98480.97
2022-08-17T01:12:14.142Z,98481.28
2022-08-17T01:14:44.184Z,98486.13
2022-08-17T01:17:13.593Z,98485.81
2022-08-17T01:19:45.430Z,98490.13
2022-08-17T01:22:24.951Z,98494.41
2022-08-17T01:25:01.211Z,98493.44
2022-08-17T01:27:30.812Z,98498.50
2022-08-17T01:30:56.881Z,98494.31
2022-08-17T01:32:56.872Z,98494.44
2022-08-17T01:35:25.955Z,98494.06
2022-08-17T01:37:56.033Z,98493.06
2022-08-17T01:40:35.327Z,98496.22
2022-08-17T01:43:13.203Z,98502.91
2022-08-17T01:45:47.827Z,98498.72
2022-08-17T01:48:33.480Z,98497.09
2022-08-17T01:51:03.208Z,98498.38
2022-08-17T01:53:39.628Z,98496.31
2022-08-17T01:56:13.598Z,98495.94
2022-08-17T01:58:43.631Z,98498.66
2022-08-17T02:01:22.980Z,98500.50
2022-08-17T02:03:59.086Z,98502.53
2022-08-17T02:06:31.444Z,98505.06
2022-08-17T02:09:16.506Z,98505.19
2022-08-17T02:11:47.391Z,98500.56
2022-08-17T02:14:16.286Z,98503.69
2022-08-17T02:16:45.326Z,98502.09
2022-08-17T02:19:17.627Z,98499.28
2022-08-17T02:21:50.236Z,98497.50
2022-08-17T02:24:59.469Z,98498.09
2022-08-17T02:27:14.919Z,98495.69
2022-08-17T02:29:43.762Z,98497.91
2022-08-17T02:32:20.903Z,98497.78
2022-08-17T02:34:58.098Z,98492.38
2022-08-17T02:37:28.261Z,98491.56
2022-08-17T02:39:59.757Z,98490.66
2022-08-17T02:42:37.331Z,98491.66
2022-08-17T02:45:11.236Z,98497.50
2022-08-17T02:47:40.337Z,98502.31
2022-08-17T02:50:13.163Z,98496.28
2022-08-17T02:53:02.220Z,98501.34
2022-08-17T02:55:38.640Z,98505.38
2022-08-17T02:58:12.348Z,98492.38
2022-08-17T03:00:47.085Z,98500.34
2022-08-17T03:03:19.702Z,98489.88
2022-08-17T03:05:53.195Z,98488.97
2022-08-17T03:08:23.503Z,98493.22
2022-08-17T03:10:54.449Z,98499.44
2022-08-17T03:13:23.345Z,98497.03
2022-08-17T03:15:52.603Z,98498.25
2022-08-17T03:18:25.617Z,98491.31
2022-08-17T03:20:56.989Z,98499.75
2022-08-17T03:23:27.784Z,98488.50
2022-08-17T03:26:01.378Z,98496.41
2022-08-17T03:28:31.089Z,98480.94
2022-08-17T03:30:59.874Z,98485.69
2022-08-17T03:33:28.652Z,98493.13
2022-08-17T03:35:57.729Z,98481.75
2022-08-17T03:38:27.388Z,98489.41
2022-08-17T03:40:59.756Z,98490.50
2022-08-17T03:43:33.721Z,98479.25
2022-08-17T03:46:34.114Z,98477.34
2022-08-17T03:49:24.421Z,98476.63
2022-08-17T03:52:11.032Z,98473.81
2022-08-17T03:54:58.109Z,98476.81
2022-08-17T03:57:27.988Z,98472.19
2022-08-17T03:59:58.312Z,98478.72
2022-08-17T04:02:30.745Z,98476.53
2022-08-17T04:05:00.663Z,98480.63
2022-08-17T04:07:32.637Z,98476.19
2022-08-17T04:10:02.025Z,98481.41
2022-08-17T04:12:44.872Z,98479.28
2022-08-17T04:15:15.751Z,98482.28
2022-08-17T04:17:45.959Z,98484.41
2022-08-17T04:20:17.927Z,98487.63
2022-08-17T04:22:59.659Z,98491.63
2022-08-17T04:28:15.876Z,98497.34
2022-08-17T04:30:48.777Z,98498.75
2022-08-17T04:33:20.221Z,98489.44
2022-08-17T04:35:52.446Z,98489.13
2022-08-17T04:38:26.810Z,98491.63
2022-08-17T04:41:14.327Z,98493.63
2022-08-17T04:43:45.516Z,98501.25
2022-08-17T04:46:18.643Z,98504.69
2022-08-17T04:48:50.855Z,98510.09
2022-08-17T04:51:24.617Z,98503.16
2022-08-17T04:53:58.117Z,98509.09
2022-08-17T04:56:28.943Z,98507.31
2022-08-17T04:59:01.285Z,98514.91
2022-08-17T05:01:35.738Z,98523.66
2022-08-17T05:04:33.197Z,98523.16
2022-08-17T05:06:58.160Z,98518.81
2022-08-17T05:09:26.926Z,98523.75
2022-08-17T05:11:56.301Z,98524.53
2022-08-17T05:14:32.413Z,98529.59
2022-08-17T05:17:07.051Z,98521.44
2022-08-17T05:19:38.313Z,98526.06
2022-08-17T05:22:07.427Z,98530.59
2022-08-17T05:24:42.777Z,98524.78
2022-08-17T05:27:17.790Z,98525.03
2022-08-17T05:29:47.961Z,98518.97
2022-08-17T05:32:38.184Z,98514.16
2022-08-17T05:35:10.440Z,98516.00
2022-08-17T05:37:39.216Z,98518.63
2022-08-17T05:40:10.086Z,98508.78
2022-08-17T05:42:38.925Z,98513.41
2022-08-17T05:45:09.643Z,98513.81
2022-08-17T05:47:41.109Z,98514.00
2022-08-17T05:50:13.439Z,98521.25
2022-08-17T05:52:59.054Z,98515.72
2022-08-17T05:55:41.476Z,98519.66
2022-08-17T05:58:26.390Z,98519.47
2022-08-17T06:01:09.091Z,98522.88
2022-08-17T06:03:50.684Z,98521.03
2022-08-17T06:06:35.755Z,98524.06
2022-08-17T06:09:33.476Z,98521.44
2022-08-17T06:12:28.174Z,98522.06
2022-08-17T06:15:15.172Z,98523.44
2022-08-17T06:17:45.059Z,98521.41
2022-08-17T06:20:17.237Z,98521.50
2022-08-17T06:22:51.174Z,98520.75
2022-08-17T06:25:33.127Z,98523.56
2022-08-17T06:28:09.563Z,98524.41
2022-08-17T06:30:59.534Z,98522.25
2022-08-17T06:33:41.210Z,98528.53
2022-08-17T06:36:34.106Z,98524.47
2022-08-17T06:39:24.558Z,98524.56
2022-08-17T06:42:54.959Z,98520.28
2022-08-17T06:45:09.912Z,98528.69
2022-08-17T06:47:48.891Z,98525.19
2022-08-17T06:50:27.351Z,98525.25
2022-08-17T06:53:21.034Z,98521.41
2022-08-17T06:55:59.994Z,98523.88
2022-08-17T06:58:31.977Z,98526.31
2022-08-17T07:01:08.873Z,98530.06
2022-08-17T07:03:54.701Z,98533.31
2022-08-17T07:06:29.070Z,98528.69
2022-08-17T07:09:05.620Z,98527.06
2022-08-17T07:11:46.449Z,98526.59
2022-08-17T07:14:33.357Z,98523.56
2022-08-17T07:17:10.249Z,98525.50
2022-08-17T07:19:45.473Z,98529.69
2022-08-17T07:22:30.367Z,98528.91
2022-08-17T07:25:21.675Z,98525.56
2022-08-17T07:27:54.906Z,98520.09
2022-08-17T07:30:27.462Z,98527.47
2022-08-17T07:33:01.625Z,98522.47
2022-08-17T07:35:41.335Z,98525.19
2022-08-17T07:38:24.398Z,98514.25
2022-08-17T07:41:06.350Z,98526.09
2022-08-17T07:43:38.195Z,98526.41
2022-08-17T07:46:35.796Z,98524.44
2022-08-17T07:49:35.167Z,98528.94
2022-08-17T07:52:48.173Z,98522.44
2022-08-17T07:54:59.110Z,98523.03
2022-08-17T07:57:35.943Z,98520.41
2022-08-17T08:00:32.317Z,98526.41
2022-08-17T08:03:18.535Z,98519.13
2022-08-17T08:05:54.620Z,98511.47
2022-08-17T08:08:31.104Z,98499.78
2022-08-17T08:11:06.329Z,98507.41
2022-08-17T08:13:42.847Z,98508.25
2022-08-17T08:16:25.586Z,98511.16
2022-08-17T08:18:58.358Z,98517.81
2022-08-17T08:21:43.912Z,98511.47
2022-08-17T08:24:46.747Z,98508.78
2022-08-17T08:27:39.006Z,98506.06
2022-08-17T08:30:15.490Z,98515.88
2022-08-17T08:33:21.949Z,98506.88
2022-08-17T08:35:58.627Z,98519.81
2022-08-17T08:38:43.325Z,98511.16
2022-08-17T08:41:39.584Z,98515.94
2022-08-17T08:45:00.974Z,98517.66
2022-08-17T08:48:12.757Z,98514.31
2022-08-17T08:51:05.919Z,98517.84
2022-08-17T08:53:53.336Z,98511.75
2022-08-17T08:56:35.456Z,98508.72
2022-08-17T08:59:26.096Z,98513.72
2022-08-17T09:02:12.877Z,98510.19
2022-08-17T09:05:14.372Z,98507.41
2022-08-17T09:07:56.347Z,98510.03
2022-08-17T09:10:35.054Z,98501.53
2022-08-17T09:13:22.150Z,98512.59
2022-08-17T09:15:59.064Z,98505.88
2022-08-17T09:19:00.639Z,98499.16
2022-08-17T09:21:33.928Z,98497.16
2022-08-17T09:24:13.113Z,98502.91
2022-08-17T09:26:54.445Z,98500.03
2022-08-17T09:29:27.978Z,98495.41
2022-08-17T09:32:01.790Z,98493.50
2022-08-17T09:34:39.131Z,98498.44
2022-08-17T09:37:28.522Z,98494.03
2022-08-17T09:40:14.939Z,98499.75
2022-08-17T09:42:51.053Z,98500.91
2022-08-17T09:45:35.884Z,98494.66
2022-08-17T09:48:28.284Z,98494.00
2022-08-17T09:51:09.045Z,98500.25
2022-08-17T09:53:41.139Z,98503.34
2022-08-17T09:56:46.021Z,98502.00
2022-08-17T09:59:42.219Z,98496.91
2022-08-17T10:02:51.698Z,98484.38
2022-08-17T10:05:28.608Z,98488.19
2022-08-17T10:08:10.615Z,98473.03
2022-08-17T10:10:56.512Z,98474.09
2022-08-17T10:13:37.313Z,98469.56
2022-08-17T10:16:15.343Z,98475.78
2022-08-17T10:19:02.157Z,98475.88
2022-08-17T10:22:00.850Z,98485.53
2022-08-17T10:25:21.330Z,98473.53
2022-08-17T10:27:52.992Z,98474.31
2022-08-17T10:30:26.759Z,98475.41
2022-08-17T10:33:01.207Z,98479.69
2022-08-17T10:35:44.275Z,98477.78
2022-08-17T10:38:46.701Z,98491.84
2022-08-17T10:41:30.481Z,98484.72
2022-08-17T10:44:40.321Z,98490.34
2022-08-17T10:47:11.786Z,98487.69
2022-08-17T10:49:45.768Z,98480.34
2022-08-17T10:52:52.340Z,98486.94
2022-08-17T10:55:21.646Z,98481.44
2022-08-17T10:57:54.947Z,98473.75
2022-08-17T11:01:04.141Z,98475.03
2022-08-17T11:03:33.392Z,98465.69
2022-08-17T11:06:18.309Z,98458.34
2022-08-17T11:09:30.762Z,98466.47
2022-08-17T11:12:36.962Z,98464.63
2022-08-17T11:15:30.867Z,98456.81
2022-08-17T11:18:28.711Z,98449.41
2022-08-17T11:21:40.657Z,98447.50
2022-08-17T11:24:24.205Z,98450.22
2022-08-17T11:27:13.596Z,98445.53
2022-08-17T11:29:58.094Z,98449.19
2022-08-17T11:32:38.533Z,98455.13
2022-08-17T11:35:40.074Z,98454.94
2022-08-17T11:38:25.409Z,98452.38
2022-08-17T11:41:21.509Z,98449.44
2022-08-17T11:44:23.501Z,98446.00
2022-08-17T11:47:32.840Z,98449.25
2022-08-17T11:51:02.800Z,98449.00
2022-08-17T11:57:00.884Z,98447.84
2022-08-17T12:00:00.176Z,98442.03
2022-08-17T12:03:09.802Z,98436.91
2022-08-17T12:05:40.314Z,98427.25
2022-08-17T12:08:21.367Z,98432.06
2022-08-17T12:11:07.519Z,98427.75
2022-08-17T12:13:50.586Z,98418.72
2022-08-17T12:16:22.120Z,98416.41
2022-08-17T12:18:57.632Z,98410.00
2022-08-17T12:21:48.790Z,98420.22
2022-08-17T12:24:32.845Z,98419.03
2022-08-17T12:27:07.058Z,98422.63
2022-08-17T12:29:39.981Z,98412.47
2022-08-17T12:32:17.845Z,98420.50
2022-08-17T12:34:49.479Z,98411.09
2022-08-17T12:37:24.578Z,98419.81
2022-08-17T12:39:59.821Z,98422.25
2022-08-17T12:42:34.858Z,98425.84
2022-08-17T12:45:04.987Z,98417.16
2022-08-17T12:47:38.858Z,98416.34
2022-08-17T12:50:28.783Z,98409.19
2022-08-17T12:53:02.710Z,98404.84
2022-08-17T12:55:39.015Z,98414.31
2022-08-17T12:58:14.788Z,98407.22
2022-08-17T13:00:51.964Z,98402.44
2022-08-17T13:03:24.450Z,98394.50
2022-08-17T13:06:00.679Z,98397.31
2022-08-17T13:08:37.368Z,98393.72
2022-08-17T13:11:09.869Z,98397.66
2022-08-17T13:13:42.721Z,98400.81
2022-08-17T13:16:20.629Z,98397.28
2022-08-17T13:18:53.111Z,98398.44
2022-08-17T13:21:30.704Z,98398.09
2022-08-17T13:24:07.733Z,98400.91
2022-08-17T13:26:41.613Z,98405.22
2022-08-17T13:29:24.192Z,98405.63
2022-08-17T13:31:58.872Z,98390.97
2022-08-17T13:35:01.636Z,98399.97
2022-08-17T13:37:34.908Z,98415.97
2022-08-17T13:40:33.109Z,98416.03
2022-08-17T13:43:03.380Z,98414.03
2022-08-17T13:45:52.443Z,98406.34
2022-08-17T13:48:29.575Z,98406.56
2022-08-17T13:51:23.836Z,98409.72
2022-08-17T13:54:05.322Z,98390.22
2022-08-17T13:57:00.217Z,98389.47
2022-08-17T13:59:54.217Z,98399.38
2022-08-17T14:02:28.279Z,98404.19
2022-08-17T14:05:00.626Z,98400.94
2022-08-17T14:07:36.196Z,98395.47
2022-08-17T14:10:13.759Z,98392.56
2022-08-17T14:12:46.657Z,98399.72
2022-08-17T14:15:20.666Z,98401.16
2022-08-17T14:17:50.436Z,98399.41
2022-08-17T14:20:24.709Z,98404.81
2022-08-17T14:22:56.332Z,98394.72
2022-08-17T14:25:30.219Z,98394.34
2022-08-17T14:28:00.895Z,98380.78
2022-08-17T14:30:30.907Z,98375.56
2022-08-17T14:33:02.182Z,98370.25
2022-08-17T14:35:31.310Z,98365.75
2022-08-17T14:38:00.174Z,98360.16
2022-08-17T14:40:29.651Z,98367.25
2022-08-17T14:43:01.331Z,98366.75
2022-08-17T14:45:32.665Z,98365.34
2022-08-17T14:48:05.821Z,98376.63
2022-08-17T14:50:36.120Z,98375.03
2022-08-17T14:53:06.986Z,98372.28
2022-08-17T14:55:39.873Z,98376.00
2022-08-17T14:58:10.523Z,98378.31
2022-08-17T15:00:40.956Z,98374.63
2022-08-17T15:03:11.578Z,98378.19
2022-08-17T15:05:44.263Z,98380.34
2022-08-17T15:08:13.064Z,98379.25
2022-08-17T15:10:42.240Z,98382.78
2022-08-17T15:13:23.691Z,98377.28
2022-08-17T15:15:53.161Z,98378.19
2022-08-17T15:18:22.153Z,98381.06
2022-08-17T15:20:52.842Z,98376.75
2022-08-17T15:23:25.037Z,98378.38
2022-08-17T15:25:56.313Z,98374.47
2022-08-17T15:28:26.464Z,98372.94
2022-08-17T15:30:55.636Z,98375.38
2022-08-17T15:33:29.500Z,98371.47
2022-08-17T15:36:00.251Z,98374.69
2022-08-17T15:38:30.590Z,98377.88
2022-08-17T15:40:59.392Z,98372.34
2022-08-17T15:43:32.739Z,98371.94
2022-08-17T15:46:05.696Z,98356.41
2022-08-17T15:48:42.637Z,98365.97
2022-08-17T15:51:15.289Z,98363.63
2022-08-17T15:53:47.947Z,98351.34
2022-08-17T15:56:17.591Z,98343.84
2022-08-17T15:58:49.828Z,98336.69
2022-08-17T16:01:57.387Z,98341.00
2022-08-17T16:04:30.028Z,98337.03
2022-08-17T16:07:00.430Z,98339.78
2022-08-17T16:09:29.720Z,98335.78
2022-08-17T16:11:58.496Z,98339.72
2022-08-17T16:14:32.407Z,98344.38
2022-08-17T16:17:02.737Z,98344.34
2022-08-17T16:19:31.609Z,98338.41
2022-08-17T16:22:00.490Z,98351.41
2022-08-17T16:24:29.377Z,98344.25
2022-08-17T16:26:58.266Z,98334.31
2022-08-17T16:29:28.545Z,98341.78
2022-08-17T16:31:57.636Z,98338.19
2022-08-17T16:34:26.563Z,98343.69
2022-08-17T16:36:56.508Z,98345.97
2022-08-17T16:39:29.398Z,98352.66
2022-08-17T16:41:59.155Z,98353.31
2022-08-17T16:44:31.820Z,98348.53
2022-08-17T16:47:01.398Z,98347.59
2022-08-17T16:49:37.407Z,98352.28
2022-08-17T16:52:11.313Z,98348.22
2022-08-17T16:54:43.582Z,98356.75
2022-08-17T16:57:13.486Z,98360.59
2022-08-17T16:59:47.932Z,98369.13
2022-08-17T17:02:25.386Z,98358.72
2022-08-17T17:05:02.726Z,98363.78
2022-08-17T17:07:57.030Z,98362.13
2022-08-17T17:10:34.774Z,98368.59
2022-08-17T17:13:09.611Z,98365.34
2022-08-17T17:16:00.253Z,98368.31
2022-08-17T17:18:41.412Z,98372.03
2022-08-17T17:21:17.618Z,98371.88
2022-08-17T17:23:57.788Z,98371.72
2022-08-17T17:26:51.729Z,98382.66
2022-08-17T17:29:47.821Z,98386.69
2022-08-17T17:32:29.466Z,98390.84
2022-08-17T17:35:08.200Z,98386.69
2022-08-17T17:37:39.188Z,98391.13
2022-08-17T17:40:19.190Z,98387.81
2022-08-17T17:42:50.805Z,98393.91
2022-08-17T17:45:26.157Z,98391.75
2022-08-17T17:47:56.535Z,98393.72
2022-08-17T17:50:37.705Z,98395.75
2022-08-17T17:53:16.332Z,98396.38
2022-08-17T17:56:06.605Z,98398.66
2022-08-17T17:58:59.800Z,98404.47
2022-08-17T18:01:49.141Z,98401.00
2022-08-17T18:04:32.118Z,98407.41
2022-08-17T18:07:29.387Z,98406.38
2022-08-17T18:10:19.454Z,98415.06
2022-08-17T18:13:09.742Z,98404.06
2022-08-17T18:15:51.042Z,98412.00
2022-08-17T18:18:38.754Z,98407.72
2022-08-17T18:21:16.991Z,98422.09
2022-08-17T18:24:00.498Z,98413.81
2022-08-17T18:26:48.547Z,98414.22
2022-08-17T18:29:38.800Z,98414.06
2022-08-17T18:32:35.291Z,98412.63
2022-08-17T18:35:30.344Z,98410.16
2022-08-17T18:38:22.818Z,98409.41
2022-08-17T18:41:06.617Z,98402.75
2022-08-17T18:43:52.912Z,98407.81
2022-08-17T18:46:30.224Z,98416.28
2022-08-17T18:49:02.488Z,98406.47
2022-08-17T18:51:42.047Z,98413.63
2022-08-17T18:54:23.147Z,98414.72
2022-08-17T18:56:57.873Z,98413.97
2022-08-17T18:59:41.212Z,98420.50
2022-08-17T19:02:44.718Z,98419.47
2022-08-17T19:05:32.316Z,98426.13
2022-08-17T19:08:21.782Z,98417.34
2022-08-17T19:10:58.713Z,98416.88
2022-08-17T19:13:33.370Z,98424.81
2022-08-17T19:16:15.433Z,98418.53
2022-08-17T19:18:53.175Z,98427.09
2022-08-17T19:21:28.451Z,98419.66
2022-08-17T19:24:06.374Z,98424.47
2022-08-17T19:26:54.309Z,98418.75
2022-08-17T19:29:34.347Z,98426.63
2022-08-17T19:32:04.267Z,98423.09
2022-08-17T19:34:36.923Z,98418.19
2022-08-17T19:37:15.082Z,98416.47
2022-08-17T19:40:00.406Z,98411.66
2022-08-17T19:42:49.904Z,98414.06
2022-08-17T19:45:37.263Z,98421.34
2022-08-17T19:48:18.438Z,98420.19
2022-08-17T19:50:55.413Z,98420.63
2022-08-17T19:54:03.887Z,98420.25
2022-08-17T19:56:43.674Z,98418.53
2022-08-17T19:59:24.697Z,98422.47
2022-08-17T20:02:01.197Z,98411.25
2022-08-17T20:04:41.212Z,98408.56
2022-08-17T20:07:18.806Z,98403.75
2022-08-17T20:09:55.028Z,98401.59
2022-08-17T20:12:34.735Z,98399.72
2022-08-17T20:15:13.522Z,98407.22
2022-08-17T20:17:47.212Z,98407.09
2022-08-17T20:20:29.803Z,98407.63
2022-08-17T20:23:11.617Z,98396.75
2022-08-17T20:26:08.349Z,98404.66
2022-08-17T20:28:39.973Z,98412.94
2022-08-17T20:32:05.886Z,98411.34
2022-08-17T20:34:39.808Z,98400.03
2022-08-17T20:37:26.577Z,98401.75
2022-08-17T20:40:20.621Z,98410.16
2022-08-17T20:42:49.787Z,98409.19
2022-08-17T20:46:13.970Z,98404.00
2022-08-17T20:48:49.704Z,98407.97
2022-08-17T20:51:32.550Z,98401.53
2022-08-17T20:54:31.550Z,98404.06
2022-08-17T20:57:06.781Z,98399.53
2022-08-17T20:59:58.469Z,98409.44
2022-08-17T21:02:30.447Z,98404.97
2022-08-17T21:05:38.762Z,98403.84
2022-08-17T21:08:18.179Z,98403.06
2022-08-17T21:10:48.381Z,98409.53
2022-08-17T21:13:59.773Z,98402.81
2022-08-17T21:16:45.258Z,98415.81
2022-08-17T21:19:54.230Z,98413.44
2022-08-17T21:22:57.813Z,98420.47
2022-08-17T21:25:52.929Z,98426.06
2022-08-17T21:29:00.474Z,98437.22
2022-08-17T21:31:37.727Z,98438.06
2022-08-17T21:34:30.150Z,98445.28
2022-08-17T21:37:35.045Z,98439.84
2022-08-17T21:40:26.466Z,98447.25
2022-08-17T21:43:01.593Z,98447.56
2022-08-17T21:45:35.663Z,98447.88
2022-08-17T21:48:17.558Z,98450.75
2022-08-17T21:50:59.259Z,98458.66
2022-08-17T21:53:39.853Z,98451.75
2022-08-17T21:56:14.194Z,98446.59
2022-08-17T21:58:48.531Z,98452.38
2022-08-17T22:01:25.766Z,98454.59
2022-08-17T22:04:04.196Z,98461.34
2022-08-17T22:06:39.918Z,98463.31
2022-08-17T22:09:21.307Z,98453.53
2022-08-17T22:12:03.631Z,98460.72
2022-08-17T22:14:52.606Z,98457.34
2022-08-17T22:17:26.634Z,98451.75
2022-08-17T22:19:59.929Z,98454.81
2022-08-17T22:22:35.542Z,98451.91
2022-08-17T22:25:08.604Z,98452.69
2022-08-17T22:27:56.611Z,98441.94
2022-08-17T22:30:34.426Z,98446.31
2022-08-17T22:33:39.726Z,98444.22
2022-08-17T22:36:32.700Z,98448.84
2022-08-17T22:39:23.545Z,98451.91
2022-08-17T22:41:57.186Z,98455.91
2022-08-17T22:44:33.345Z,98466.28
2022-08-17T22:47:11.308Z,98460.81
2022-08-17T22:49:53.175Z,98473.38
2022-08-17T22:52:35.326Z,98474.66
2022-08-17T22:55:33.558Z,98471.22
2022-08-17T22:58:28.051Z,98466.06
2022-08-17T23:00:58.749Z,98465.91
2022-08-17T23:03:28.429Z,98463.16
2022-08-17T23:06:09.730Z,98462.31
2022-08-17T23:08:48.169Z,98456.88
2022-08-17T23:11:17.144Z,98451.28
2022-08-17T23:13:46.112Z,98449.69
2022-08-17T23:16:16.218Z,98449.50
2022-08-17T23:18:49.429Z,98448.84
2022-08-17T23:21:27.226Z,98447.25
2022-08-17T23:23:56.858Z,98448.03
2022-08-17T23:26:27.778Z,98451.22
2022-08-17T23:28:56.605Z,98457.25
2022-08-17T23:31:27.611Z,98460.28
2022-08-17T23:33:56.365Z,98453.09
2022-08-17T23:36:25.139Z,98443.19
2022-08-17T23:38:54.612Z,98448.47
2022-08-17T23:41:26.949Z,98456.63
2022-08-17T23:43:56.497Z,98455.53
2022-08-17T23:46:26.784Z,98457.56
2022-08-17T23:48:55.817Z,98459.78
2022-08-17T23:51:29.004Z,98468.94
2022-08-17T23:54:07.896Z,98464.59
2022-08-17T23:56:42.073Z,98450.16
2022-08-17T23:59:11.743Z,98438.66
